sensor_id;sensor_type;location;lat;lon;timestamp;temperature;humidity
64951;DHT22;51482;47.014;7.652;2023-05-29T00:01:10;15.10;99.90
64951;DHT22;51482;47.014;7.652;2023-05-29T00:03:36;15.70;99.90
64951;DHT22;51482;47.014;7.652;2023-05-29T00:06:02;15.00;99.90
64951;DHT22;51482;47.014;7.652;2023-05-29T00:08:28;14.90;99.90
64951;DHT22;51482;47.014;7.652;2023-05-29T00:10:53;14.90;99.90
64951;DHT22;51482;47.014;7.652;2023-05-29T00:13:19;14.80;99.90
64951;DHT22;51482;47.014;7.652;2023-05-29T00:15:46;14.70;99.90
64951;DHT22;51482;47.014;7.652;2023-05-29T00:18:11;14.80;99.90
64951;DHT22;51482;47.014;7.652;2023-05-29T00:20:37;14.60;99.90
64951;DHT22;51482;47.014;7.652;2023-05-29T00:23:03;15.10;99.90
64951;DHT22;51482;47.014;7.652;2023-05-29T00:25:30;14.50;99.90
64951;DHT22;51482;47.014;7.652;2023-05-29T00:27:55;13.90;99.90
64951;DHT22;51482;47.014;7.652;2023-05-29T00:30:21;14.50;99.90
64951;DHT22;51482;47.014;7.652;2023-05-29T00:32:46;14.50;99.90
64951;DHT22;51482;47.014;7.652;2023-05-29T00:35:12;14.40;99.90
64951;DHT22;51482;47.014;7.652;2023-05-29T00:37:37;14.80;99.90
64951;DHT22;51482;47.014;7.652;2023-05-29T00:40:03;14.30;99.90
64951;DHT22;51482;47.014;7.652;2023-05-29T00:42:29;14.30;99.90
64951;DHT22;51482;47.014;7.652;2023-05-29T00:44:54;14.20;99.90
64951;DHT22;51482;47.014;7.652;2023-05-29T00:47:20;14.20;99.90
64951;DHT22;51482;47.014;7.652;2023-05-29T00:49:46;14.10;99.90
64951;DHT22;51482;47.014;7.652;2023-05-29T00:52:12;14.10;99.90
64951;DHT22;51482;47.014;7.652;2023-05-29T00:54:38;14.10;99.90
64951;DHT22;51482;47.014;7.652;2023-05-29T00:57:05;14.30;99.90
64951;DHT22;51482;47.014;7.652;2023-05-29T00:59:32;13.90;99.90
64951;DHT22;51482;47.014;7.652;2023-05-29T01:01:59;13.80;99.90
64951;DHT22;51482;47.014;7.652;2023-05-29T01:04:26;14.30;99.90
64951;DHT22;51482;47.014;7.652;2023-05-29T01:06:52;13.80;99.90
64951;DHT22;51482;47.014;7.652;2023-05-29T01:09:18;13.90;99.90
64951;DHT22;51482;47.014;7.652;2023-05-29T01:17:28;13.90;99.90
64951;DHT22;51482;47.014;7.652;2023-05-29T01:22:52;13.90;99.90
64951;DHT22;51482;47.014;7.652;2023-05-29T01:28:01;13.80;99.90
64951;DHT22;51482;47.014;7.652;2023-05-29T01:30:31;13.80;99.90
64951;DHT22;51482;47.014;7.652;2023-05-29T01:32:58;13.70;99.90
64951;DHT22;51482;47.014;7.652;2023-05-29T01:35:24;13.70;99.90
64951;DHT22;51482;47.014;7.652;2023-05-29T01:37:50;13.90;99.90
64951;DHT22;51482;47.014;7.652;2023-05-29T01:40:16;13.60;99.90
64951;DHT22;51482;47.014;7.652;2023-05-29T01:42:42;13.50;99.90
64951;DHT22;51482;47.014;7.652;2023-05-29T01:45:08;13.60;99.90
64951;DHT22;51482;47.014;7.652;2023-05-29T01:47:35;13.40;99.90
64951;DHT22;51482;47.014;7.652;2023-05-29T01:50:03;13.20;99.90
64951;DHT22;51482;47.014;7.652;2023-05-29T01:52:29;13.10;99.90
64951;DHT22;51482;47.014;7.652;2023-05-29T01:54:55;13.10;99.90
64951;DHT22;51482;47.014;7.652;2023-05-29T01:57:21;13.20;99.90
64951;DHT22;51482;47.014;7.652;2023-05-29T01:59:47;13.20;99.90
64951;DHT22;51482;47.014;7.652;2023-05-29T02:02:14;13.20;99.90
64951;DHT22;51482;47.014;7.652;2023-05-29T02:04:39;13.20;99.90
64951;DHT22;51482;47.014;7.652;2023-05-29T02:07:05;13.70;99.90
64951;DHT22;51482;47.014;7.652;2023-05-29T02:09:32;13.20;99.90
64951;DHT22;51482;47.014;7.652;2023-05-29T02:11:58;13.20;99.90
64951;DHT22;51482;47.014;7.652;2023-05-29T02:14:23;13.20;99.90
64951;DHT22;51482;47.014;7.652;2023-05-29T02:16:52;13.10;99.90
64951;DHT22;51482;47.014;7.652;2023-05-29T02:19:18;13.00;99.90
64951;DHT22;51482;47.014;7.652;2023-05-29T02:21:44;12.90;99.90
64951;DHT22;51482;47.014;7.652;2023-05-29T02:24:10;13.40;99.90
64951;DHT22;51482;47.014;7.652;2023-05-29T02:26:35;12.80;99.90
64951;DHT22;51482;47.014;7.652;2023-05-29T02:29:04;12.80;99.90
64951;DHT22;51482;47.014;7.652;2023-05-29T02:31:32;12.80;99.90
64951;DHT22;51482;47.014;7.652;2023-05-29T02:33:58;12.70;99.90
64951;DHT22;51482;47.014;7.652;2023-05-29T02:36:23;13.10;99.90
64951;DHT22;51482;47.014;7.652;2023-05-29T02:38:49;12.70;99.90
64951;DHT22;51482;47.014;7.652;2023-05-29T02:41:14;12.50;99.90
64951;DHT22;51482;47.014;7.652;2023-05-29T02:43:40;12.40;99.90
64951;DHT22;51482;47.014;7.652;2023-05-29T02:46:06;12.30;99.90
64951;DHT22;51482;47.014;7.652;2023-05-29T02:48:31;12.70;99.90
64951;DHT22;51482;47.014;7.652;2023-05-29T02:50:57;12.10;99.90
64951;DHT22;51482;47.014;7.652;2023-05-29T02:53:22;12.70;99.90
64951;DHT22;51482;47.014;7.652;2023-05-29T02:55:48;12.20;99.90
64951;DHT22;51482;47.014;7.652;2023-05-29T02:58:14;12.80;99.90
64951;DHT22;51482;47.014;7.652;2023-05-29T03:00:41;12.20;99.90
64951;DHT22;51482;47.014;7.652;2023-05-29T03:03:07;12.80;99.90
64951;DHT22;51482;47.014;7.652;2023-05-29T03:05:32;12.70;99.90
64951;DHT22;51482;47.014;7.652;2023-05-29T03:07:58;12.10;99.90
64951;DHT22;51482;47.014;7.652;2023-05-29T03:10:23;12.00;99.90
64951;DHT22;51482;47.014;7.652;2023-05-29T03:12:49;12.40;99.90
64951;DHT22;51482;47.014;7.652;2023-05-29T03:15:15;12.40;99.90
64951;DHT22;51482;47.014;7.652;2023-05-29T03:17:40;12.00;99.90
64951;DHT22;51482;47.014;7.652;2023-05-29T03:20:06;12.00;99.90
64951;DHT22;51482;47.014;7.652;2023-05-29T03:22:36;12.00;99.90
64951;DHT22;51482;47.014;7.652;2023-05-29T03:25:03;11.80;99.90
64951;DHT22;51482;47.014;7.652;2023-05-29T03:27:29;11.80;99.90
64951;DHT22;51482;47.014;7.652;2023-05-29T03:29:55;11.70;99.90
64951;DHT22;51482;47.014;7.652;2023-05-29T03:32:20;12.20;99.90
64951;DHT22;51482;47.014;7.652;2023-05-29T03:34:46;12.10;99.90
64951;DHT22;51482;47.014;7.652;2023-05-29T03:37:13;11.50;99.90
64951;DHT22;51482;47.014;7.652;2023-05-29T03:39:38;12.10;99.90
64951;DHT22;51482;47.014;7.652;2023-05-29T03:42:04;12.00;99.90
64951;DHT22;51482;47.014;7.652;2023-05-29T03:44:30;11.50;99.90
64951;DHT22;51482;47.014;7.652;2023-05-29T03:46:55;11.60;99.90
64951;DHT22;51482;47.014;7.652;2023-05-29T03:49:21;11.60;99.90
64951;DHT22;51482;47.014;7.652;2023-05-29T03:51:46;12.40;99.90
64951;DHT22;51482;47.014;7.652;2023-05-29T03:54:12;12.10;99.90
64951;DHT22;51482;47.014;7.652;2023-05-29T03:56:37;12.30;99.90
64951;DHT22;51482;47.014;7.652;2023-05-29T03:59:03;12.10;99.90
64951;DHT22;51482;47.014;7.652;2023-05-29T04:01:29;11.40;99.90
64951;DHT22;51482;47.014;7.652;2023-05-29T04:03:54;11.30;99.90
64951;DHT22;51482;47.014;7.652;2023-05-29T04:06:20;11.50;99.90
64951;DHT22;51482;47.014;7.652;2023-05-29T04:08:47;12.00;99.90
64951;DHT22;51482;47.014;7.652;2023-05-29T04:11:13;11.50;99.90
64951;DHT22;51482;47.014;7.652;2023-05-29T04:13:39;12.00;99.90
64951;DHT22;51482;47.014;7.652;2023-05-29T04:16:04;11.50;99.90
64951;DHT22;51482;47.014;7.652;2023-05-29T04:18:30;11.60;99.90
64951;DHT22;51482;47.014;7.652;2023-05-29T04:20:56;11.30;99.90
64951;DHT22;51482;47.014;7.652;2023-05-29T04:23:21;11.30;99.90
64951;DHT22;51482;47.014;7.652;2023-05-29T04:25:47;11.30;99.90
64951;DHT22;51482;47.014;7.652;2023-05-29T04:28:16;11.20;99.90
64951;DHT22;51482;47.014;7.652;2023-05-29T04:30:42;11.10;99.90
64951;DHT22;51482;47.014;7.652;2023-05-29T04:33:07;10.50;99.90
64951;DHT22;51482;47.014;7.652;2023-05-29T04:35:35;11.20;99.90
64951;DHT22;51482;47.014;7.652;2023-05-29T04:38:01;11.90;99.90
64951;DHT22;51482;47.014;7.652;2023-05-29T04:40:26;11.90;99.90
64951;DHT22;51482;47.014;7.652;2023-05-29T04:42:52;12.00;99.90
64951;DHT22;51482;47.014;7.652;2023-05-29T04:45:20;12.00;99.90
64951;DHT22;51482;47.014;7.652;2023-05-29T04:47:46;12.10;99.90
64951;DHT22;51482;47.014;7.652;2023-05-29T04:50:16;11.10;99.90
64951;DHT22;51482;47.014;7.652;2023-05-29T04:52:42;11.70;99.90
64951;DHT22;51482;47.014;7.652;2023-05-29T04:55:09;11.60;99.90
64951;DHT22;51482;47.014;7.652;2023-05-29T04:57:35;11.70;99.90
64951;DHT22;51482;47.014;7.652;2023-05-29T05:00:01;11.80;99.90
64951;DHT22;51482;47.014;7.652;2023-05-29T05:02:30;11.80;99.90
64951;DHT22;51482;47.014;7.652;2023-05-29T05:04:56;12.10;99.90
64951;DHT22;51482;47.014;7.652;2023-05-29T05:07:22;11.80;99.90
64951;DHT22;51482;47.014;7.652;2023-05-29T05:09:47;11.80;99.90
64951;DHT22;51482;47.014;7.652;2023-05-29T05:12:13;11.80;99.90
64951;DHT22;51482;47.014;7.652;2023-05-29T05:14:38;11.60;99.90
64951;DHT22;51482;47.014;7.652;2023-05-29T05:17:04;11.80;99.90
64951;DHT22;51482;47.014;7.652;2023-05-29T05:19:30;11.90;99.90
64951;DHT22;51482;47.014;7.652;2023-05-29T05:21:55;12.10;99.90
64951;DHT22;51482;47.014;7.652;2023-05-29T05:24:21;12.10;99.90
64951;DHT22;51482;47.014;7.652;2023-05-29T05:26:47;12.20;99.90
64951;DHT22;51482;47.014;7.652;2023-05-29T05:29:12;12.30;99.90
64951;DHT22;51482;47.014;7.652;2023-05-29T05:31:38;12.70;99.90
64951;DHT22;51482;47.014;7.652;2023-05-29T05:34:04;12.40;99.90
64951;DHT22;51482;47.014;7.652;2023-05-29T05:36:30;12.40;99.90
64951;DHT22;51482;47.014;7.652;2023-05-29T05:38:56;12.40;99.90
64951;DHT22;51482;47.014;7.652;2023-05-29T05:41:22;12.40;99.90
64951;DHT22;51482;47.014;7.652;2023-05-29T05:43:47;12.90;99.90
64951;DHT22;51482;47.014;7.652;2023-05-29T05:46:13;12.60;99.90
64951;DHT22;51482;47.014;7.652;2023-05-29T05:48:40;13.10;99.90
64951;DHT22;51482;47.014;7.652;2023-05-29T05:51:06;13.30;99.90
64951;DHT22;51482;47.014;7.652;2023-05-29T05:53:31;12.90;99.90
64951;DHT22;51482;47.014;7.652;2023-05-29T05:55:57;12.90;99.90
64951;DHT22;51482;47.014;7.652;2023-05-29T05:58:22;13.00;99.90
64951;DHT22;51482;47.014;7.652;2023-05-29T06:00:48;13.10;99.90
64951;DHT22;51482;47.014;7.652;2023-05-29T06:03:18;13.20;99.90
64951;DHT22;51482;47.014;7.652;2023-05-29T06:05:43;13.30;99.90
64951;DHT22;51482;47.014;7.652;2023-05-29T06:08:09;13.30;99.90
64951;DHT22;51482;47.014;7.652;2023-05-29T06:10:34;13.30;99.90
64951;DHT22;51482;47.014;7.652;2023-05-29T06:13:00;13.40;99.90
64951;DHT22;51482;47.014;7.652;2023-05-29T06:15:26;13.40;99.90
64951;DHT22;51482;47.014;7.652;2023-05-29T06:17:52;13.50;99.90
64951;DHT22;51482;47.014;7.652;2023-05-29T06:20:17;13.60;99.90
64951;DHT22;51482;47.014;7.652;2023-05-29T06:22:44;13.70;99.90
64951;DHT22;51482;47.014;7.652;2023-05-29T06:25:18;13.90;99.90
64951;DHT22;51482;47.014;7.652;2023-05-29T06:27:45;14.00;99.90
64951;DHT22;51482;47.014;7.652;2023-05-29T06:30:11;14.10;99.90
64951;DHT22;51482;47.014;7.652;2023-05-29T06:32:37;14.20;99.90
64951;DHT22;51482;47.014;7.652;2023-05-29T06:35:03;14.40;99.90
64951;DHT22;51482;47.014;7.652;2023-05-29T06:37:29;14.60;99.90
64951;DHT22;51482;47.014;7.652;2023-05-29T06:39:55;14.70;99.90
64951;DHT22;51482;47.014;7.652;2023-05-29T06:42:20;15.30;99.90
64951;DHT22;51482;47.014;7.652;2023-05-29T06:44:45;14.90;99.90
64951;DHT22;51482;47.014;7.652;2023-05-29T06:47:11;15.00;99.90
64951;DHT22;51482;47.014;7.652;2023-05-29T06:49:37;15.20;99.90
64951;DHT22;51482;47.014;7.652;2023-05-29T06:52:02;15.50;99.90
64951;DHT22;51482;47.014;7.652;2023-05-29T06:54:28;15.40;99.90
64951;DHT22;51482;47.014;7.652;2023-05-29T06:56:53;15.60;99.90
64951;DHT22;51482;47.014;7.652;2023-05-29T06:59:20;15.80;99.90
64951;DHT22;51482;47.014;7.652;2023-05-29T07:01:45;15.90;99.90
64951;DHT22;51482;47.014;7.652;2023-05-29T07:04:11;16.00;99.90
64951;DHT22;51482;47.014;7.652;2023-05-29T07:06:37;16.20;99.90
64951;DHT22;51482;47.014;7.652;2023-05-29T07:09:04;17.00;99.90
64951;DHT22;51482;47.014;7.652;2023-05-29T07:11:30;16.50;99.90
64951;DHT22;51482;47.014;7.652;2023-05-29T07:13:55;16.70;99.90
64951;DHT22;51482;47.014;7.652;2023-05-29T07:16:21;16.90;99.90
64951;DHT22;51482;47.014;7.652;2023-05-29T07:18:46;17.10;99.90
64951;DHT22;51482;47.014;7.652;2023-05-29T07:21:12;17.30;99.90
64951;DHT22;51482;47.014;7.652;2023-05-29T07:23:39;17.50;99.90
64951;DHT22;51482;47.014;7.652;2023-05-29T07:26:05;17.80;99.90
64951;DHT22;51482;47.014;7.652;2023-05-29T07:28:30;18.00;99.90
64951;DHT22;51482;47.014;7.652;2023-05-29T07:30:56;18.50;99.90
64951;DHT22;51482;47.014;7.652;2023-05-29T07:33:21;18.60;99.90
64951;DHT22;51482;47.014;7.652;2023-05-29T07:35:48;18.80;99.90
64951;DHT22;51482;47.014;7.652;2023-05-29T07:38:13;18.60;99.90
64951;DHT22;51482;47.014;7.652;2023-05-29T07:40:39;18.80;99.90
64951;DHT22;51482;47.014;7.652;2023-05-29T07:43:05;19.00;99.90
64951;DHT22;51482;47.014;7.652;2023-05-29T07:45:30;19.20;99.90
64951;DHT22;51482;47.014;7.652;2023-05-29T07:47:56;19.40;99.90
64951;DHT22;51482;47.014;7.652;2023-05-29T07:50:21;19.60;99.90
64951;DHT22;51482;47.014;7.652;2023-05-29T07:52:47;19.90;99.90
64951;DHT22;51482;47.014;7.652;2023-05-29T07:55:12;20.40;99.90
64951;DHT22;51482;47.014;7.652;2023-05-29T07:57:38;20.30;99.90
64951;DHT22;51482;47.014;7.652;2023-05-29T08:00:08;20.50;99.90
64951;DHT22;51482;47.014;7.652;2023-05-29T08:02:34;20.60;99.90
64951;DHT22;51482;47.014;7.652;2023-05-29T08:05:00;21.30;99.90
64951;DHT22;51482;47.014;7.652;2023-05-29T08:07:25;20.90;99.90
64951;DHT22;51482;47.014;7.652;2023-05-29T08:09:53;21.20;99.90
64951;DHT22;51482;47.014;7.652;2023-05-29T08:12:19;21.40;99.90
64951;DHT22;51482;47.014;7.652;2023-05-29T08:14:44;21.40;99.90
64951;DHT22;51482;47.014;7.652;2023-05-29T08:17:10;22.20;99.90
64951;DHT22;51482;47.014;7.652;2023-05-29T08:19:35;21.90;99.90
64951;DHT22;51482;47.014;7.652;2023-05-29T08:22:01;22.30;99.90
64951;DHT22;51482;47.014;7.652;2023-05-29T08:24:27;22.30;99.90
64951;DHT22;51482;47.014;7.652;2023-05-29T08:26:53;22.30;99.90
64951;DHT22;51482;47.014;7.652;2023-05-29T08:29:19;22.80;99.50
64951;DHT22;51482;47.014;7.652;2023-05-29T08:31:44;22.40;97.20
64951;DHT22;51482;47.014;7.652;2023-05-29T08:34:10;22.50;98.00
64951;DHT22;51482;47.014;7.652;2023-05-29T08:36:35;23.30;98.10
64951;DHT22;51482;47.014;7.652;2023-05-29T08:39:01;23.20;96.90
64951;DHT22;51482;47.014;7.652;2023-05-29T08:41:54;23.10;97.30
64951;DHT22;51482;47.014;7.652;2023-05-29T08:44:23;23.40;96.50
64951;DHT22;51482;47.014;7.652;2023-05-29T08:46:55;23.60;95.90
64951;DHT22;51482;47.014;7.652;2023-05-29T08:49:21;23.70;94.70
64951;DHT22;51482;47.014;7.652;2023-05-29T08:52:09;23.90;94.60
64951;DHT22;51482;47.014;7.652;2023-05-29T08:54:35;24.00;93.30
64951;DHT22;51482;47.014;7.652;2023-05-29T08:57:01;24.20;92.20
64951;DHT22;51482;47.014;7.652;2023-05-29T08:59:30;24.40;91.90
64951;DHT22;51482;47.014;7.652;2023-05-29T09:01:56;24.50;91.00
64951;DHT22;51482;47.014;7.652;2023-05-29T09:04:22;24.50;91.60
64951;DHT22;51482;47.014;7.652;2023-05-29T09:06:49;24.50;90.60
64951;DHT22;51482;47.014;7.652;2023-05-29T09:09:15;25.10;91.60
64951;DHT22;51482;47.014;7.652;2023-05-29T09:11:41;25.50;90.90
64951;DHT22;51482;47.014;7.652;2023-05-29T09:14:31;25.20;87.60
64951;DHT22;51482;47.014;7.652;2023-05-29T09:16:56;25.30;87.10
64951;DHT22;51482;47.014;7.652;2023-05-29T09:19:22;25.40;84.50
64951;DHT22;51482;47.014;7.652;2023-05-29T09:21:48;25.10;83.20
64951;DHT22;51482;47.014;7.652;2023-05-29T09:24:14;25.10;82.90
64951;DHT22;51482;47.014;7.652;2023-05-29T09:26:49;25.20;81.90
64951;DHT22;51482;47.014;7.652;2023-05-29T09:29:15;25.60;84.60
64951;DHT22;51482;47.014;7.652;2023-05-29T09:31:46;26.20;81.10
64951;DHT22;51482;47.014;7.652;2023-05-29T09:34:14;25.70;77.70
64951;DHT22;51482;47.014;7.652;2023-05-29T09:36:40;25.80;79.00
64951;DHT22;51482;47.014;7.652;2023-05-29T09:39:06;25.80;78.30
64951;DHT22;51482;47.014;7.652;2023-05-29T09:41:41;25.80;76.80
64951;DHT22;51482;47.014;7.652;2023-05-29T09:44:07;25.90;76.00
64951;DHT22;51482;47.014;7.652;2023-05-29T09:46:35;26.30;78.00
64951;DHT22;51482;47.014;7.652;2023-05-29T09:49:02;26.40;75.00
64951;DHT22;51482;47.014;7.652;2023-05-29T09:51:28;26.50;76.10
64951;DHT22;51482;47.014;7.652;2023-05-29T09:53:54;26.80;75.50
64951;DHT22;51482;47.014;7.652;2023-05-29T09:56:23;27.10;74.70
64951;DHT22;51482;47.014;7.652;2023-05-29T09:58:50;27.00;72.30
64951;DHT22;51482;47.014;7.652;2023-05-29T10:01:17;27.50;74.10
64951;DHT22;51482;47.014;7.652;2023-05-29T10:03:43;27.20;71.40
64951;DHT22;51482;47.014;7.652;2023-05-29T10:06:16;27.20;69.80
64951;DHT22;51482;47.014;7.652;2023-05-29T10:08:50;27.20;70.70
64951;DHT22;51482;47.014;7.652;2023-05-29T10:11:21;27.80;68.30
64951;DHT22;51482;47.014;7.652;2023-05-29T10:13:51;27.40;69.10
64951;DHT22;51482;47.014;7.652;2023-05-29T10:16:21;27.50;69.80
64951;DHT22;51482;47.014;7.652;2023-05-29T10:18:53;27.40;67.00
64951;DHT22;51482;47.014;7.652;2023-05-29T10:21:21;27.50;66.30
64951;DHT22;51482;47.014;7.652;2023-05-29T10:23:48;28.20;67.90
64951;DHT22;51482;47.014;7.652;2023-05-29T10:26:27;28.00;67.30
64951;DHT22;51482;47.014;7.652;2023-05-29T10:29:11;27.90;64.80
64951;DHT22;51482;47.014;7.652;2023-05-29T10:37:35;27.60;64.30
64951;DHT22;51482;47.014;7.652;2023-05-29T10:40:06;28.00;61.70
64951;DHT22;51482;47.014;7.652;2023-05-29T10:42:49;28.00;62.50
64951;DHT22;51482;47.014;7.652;2023-05-29T10:50:46;28.40;59.40
64951;DHT22;51482;47.014;7.652;2023-05-29T10:53:17;28.20;59.20
64951;DHT22;51482;47.014;7.652;2023-05-29T10:55:45;29.20;62.20
64951;DHT22;51482;47.014;7.652;2023-05-29T10:58:24;28.50;57.50
64951;DHT22;51482;47.014;7.652;2023-05-29T11:00:51;28.80;59.40
64951;DHT22;51482;47.014;7.652;2023-05-29T11:03:30;29.00;59.80
64951;DHT22;51482;47.014;7.652;2023-05-29T11:05:59;28.80;56.90
64951;DHT22;51482;47.014;7.652;2023-05-29T11:08:42;28.50;57.50
64951;DHT22;51482;47.014;7.652;2023-05-29T11:11:12;28.40;56.70
64951;DHT22;51482;47.014;7.652;2023-05-29T11:13:38;28.00;56.40
64951;DHT22;51482;47.014;7.652;2023-05-29T11:18:46;28.20;56.30
64951;DHT22;51482;47.014;7.652;2023-05-29T11:24:22;27.90;56.50
64951;DHT22;51482;47.014;7.652;2023-05-29T11:26:51;28.20;57.70
64951;DHT22;51482;47.014;7.652;2023-05-29T11:29:22;28.00;56.40
64951;DHT22;51482;47.014;7.652;2023-05-29T11:31:52;28.50;57.60
64951;DHT22;51482;47.014;7.652;2023-05-29T11:34:20;28.30;56.60
64951;DHT22;51482;47.014;7.652;2023-05-29T11:36:46;28.10;58.30
64951;DHT22;51482;47.014;7.652;2023-05-29T11:39:14;27.90;57.30
64951;DHT22;51482;47.014;7.652;2023-05-29T11:41:39;28.30;57.50
64951;DHT22;51482;47.014;7.652;2023-05-29T11:44:05;29.00;57.40
64951;DHT22;51482;47.014;7.652;2023-05-29T11:46:31;28.90;57.30
64951;DHT22;51482;47.014;7.652;2023-05-29T11:48:58;28.60;56.80
64951;DHT22;51482;47.014;7.652;2023-05-29T11:51:24;28.70;57.00
64951;DHT22;51482;47.014;7.652;2023-05-29T11:53:51;28.80;57.40
64951;DHT22;51482;47.014;7.652;2023-05-29T11:56:23;29.00;56.90
64951;DHT22;51482;47.014;7.652;2023-05-29T11:58:49;28.90;56.10
64951;DHT22;51482;47.014;7.652;2023-05-29T12:01:16;28.70;57.40
64951;DHT22;51482;47.014;7.652;2023-05-29T12:03:44;28.70;55.90
64951;DHT22;51482;47.014;7.652;2023-05-29T12:06:10;28.90;56.70
64951;DHT22;51482;47.014;7.652;2023-05-29T12:08:36;29.00;56.30
64951;DHT22;51482;47.014;7.652;2023-05-29T12:11:02;28.80;55.40
64951;DHT22;51482;47.014;7.652;2023-05-29T12:13:28;29.00;57.20
64951;DHT22;51482;47.014;7.652;2023-05-29T12:15:59;28.60;55.00
64951;DHT22;51482;47.014;7.652;2023-05-29T12:18:26;28.80;55.30
64951;DHT22;51482;47.014;7.652;2023-05-29T12:21:03;28.50;54.90
64951;DHT22;51482;47.014;7.652;2023-05-29T12:23:29;28.90;56.30
64951;DHT22;51482;47.014;7.652;2023-05-29T12:25:56;29.20;55.70
64951;DHT22;51482;47.014;7.652;2023-05-29T12:28:22;29.20;56.40
64951;DHT22;51482;47.014;7.652;2023-05-29T12:30:48;29.30;55.60
64951;DHT22;51482;47.014;7.652;2023-05-29T12:33:29;28.90;54.10
64951;DHT22;51482;47.014;7.652;2023-05-29T12:36:00;28.80;55.10
64951;DHT22;51482;47.014;7.652;2023-05-29T12:38:26;29.00;55.50
64951;DHT22;51482;47.014;7.652;2023-05-29T12:40:52;29.00;54.40
64951;DHT22;51482;47.014;7.652;2023-05-29T12:43:19;29.30;56.10
64951;DHT22;51482;47.014;7.652;2023-05-29T12:45:44;29.30;54.10
64951;DHT22;51482;47.014;7.652;2023-05-29T12:48:10;29.20;54.80
64951;DHT22;51482;47.014;7.652;2023-05-29T12:50:40;28.90;53.80
64951;DHT22;51482;47.014;7.652;2023-05-29T12:53:07;28.90;53.60
64951;DHT22;51482;47.014;7.652;2023-05-29T12:55:34;28.80;53.50
64951;DHT22;51482;47.014;7.652;2023-05-29T12:58:13;28.70;54.90
64951;DHT22;51482;47.014;7.652;2023-05-29T13:00:41;29.00;56.10
64951;DHT22;51482;47.014;7.652;2023-05-29T13:03:07;28.60;53.90
64951;DHT22;51482;47.014;7.652;2023-05-29T13:05:33;28.60;54.30
64951;DHT22;51482;47.014;7.652;2023-05-29T13:07:59;28.60;54.80
64951;DHT22;51482;47.014;7.652;2023-05-29T13:10:26;29.00;54.80
64951;DHT22;51482;47.014;7.652;2023-05-29T13:12:53;28.80;53.90
64951;DHT22;51482;47.014;7.652;2023-05-29T13:15:21;28.90;54.10
64951;DHT22;51482;47.014;7.652;2023-05-29T13:17:47;29.00;52.50
64951;DHT22;51482;47.014;7.652;2023-05-29T13:20:13;29.10;52.70
64951;DHT22;51482;47.014;7.652;2023-05-29T13:22:40;28.90;54.10
64951;DHT22;51482;47.014;7.652;2023-05-29T13:25:08;29.10;53.50
64951;DHT22;51482;47.014;7.652;2023-05-29T13:27:38;29.00;52.70
64951;DHT22;51482;47.014;7.652;2023-05-29T13:30:05;28.90;51.90
64951;DHT22;51482;47.014;7.652;2023-05-29T13:32:31;29.00;53.10
64951;DHT22;51482;47.014;7.652;2023-05-29T13:34:57;28.70;51.20
64951;DHT22;51482;47.014;7.652;2023-05-29T13:37:23;28.50;51.10
64951;DHT22;51482;47.014;7.652;2023-05-29T13:39:49;28.90;51.70
64951;DHT22;51482;47.014;7.652;2023-05-29T13:42:15;29.10;52.00
64951;DHT22;51482;47.014;7.652;2023-05-29T13:44:41;29.10;53.10
64951;DHT22;51482;47.014;7.652;2023-05-29T13:47:06;29.10;50.80
64951;DHT22;51482;47.014;7.652;2023-05-29T13:49:34;29.00;51.80
64951;DHT22;51482;47.014;7.652;2023-05-29T13:51:59;29.10;51.20
64951;DHT22;51482;47.014;7.652;2023-05-29T13:54:25;29.10;53.20
64951;DHT22;51482;47.014;7.652;2023-05-29T13:56:52;29.00;52.70
64951;DHT22;51482;47.014;7.652;2023-05-29T13:59:18;29.60;53.00
64951;DHT22;51482;47.014;7.652;2023-05-29T14:01:44;29.30;51.50
64951;DHT22;51482;47.014;7.652;2023-05-29T14:04:09;29.30;52.10
64951;DHT22;51482;47.014;7.652;2023-05-29T14:06:35;28.90;51.30
64951;DHT22;51482;47.014;7.652;2023-05-29T14:09:02;29.50;52.20
64951;DHT22;51482;47.014;7.652;2023-05-29T14:11:27;28.90;50.30
64951;DHT22;51482;47.014;7.652;2023-05-29T14:13:53;29.50;50.70
64951;DHT22;51482;47.014;7.652;2023-05-29T14:16:18;28.80;49.50
64951;DHT22;51482;47.014;7.652;2023-05-29T14:18:44;29.00;48.90
64951;DHT22;51482;47.014;7.652;2023-05-29T14:21:10;28.60;49.00
64951;DHT22;51482;47.014;7.652;2023-05-29T14:23:36;28.40;48.70
64951;DHT22;51482;47.014;7.652;2023-05-29T14:26:02;28.40;49.70
64951;DHT22;51482;47.014;7.652;2023-05-29T14:28:27;28.40;49.50
64951;DHT22;51482;47.014;7.652;2023-05-29T14:30:53;28.90;48.40
64951;DHT22;51482;47.014;7.652;2023-05-29T14:33:18;28.40;46.90
64951;DHT22;51482;47.014;7.652;2023-05-29T14:35:44;28.80;49.20
64951;DHT22;51482;47.014;7.652;2023-05-29T14:38:10;28.80;49.60
64951;DHT22;51482;47.014;7.652;2023-05-29T14:40:35;29.00;48.90
64951;DHT22;51482;47.014;7.652;2023-05-29T14:43:02;28.60;47.50
64951;DHT22;51482;47.014;7.652;2023-05-29T14:45:28;28.90;47.70
64951;DHT22;51482;47.014;7.652;2023-05-29T14:47:53;29.00;47.80
64951;DHT22;51482;47.014;7.652;2023-05-29T14:50:19;28.60;48.20
64951;DHT22;51482;47.014;7.652;2023-05-29T14:52:45;29.00;48.90
64951;DHT22;51482;47.014;7.652;2023-05-29T14:55:13;29.20;47.80
64951;DHT22;51482;47.014;7.652;2023-05-29T14:57:40;29.20;48.80
64951;DHT22;51482;47.014;7.652;2023-05-29T15:00:07;28.80;48.40
64951;DHT22;51482;47.014;7.652;2023-05-29T15:02:32;28.80;49.30
64951;DHT22;51482;47.014;7.652;2023-05-29T15:04:58;28.80;48.70
64951;DHT22;51482;47.014;7.652;2023-05-29T15:07:24;29.40;49.10
64951;DHT22;51482;47.014;7.652;2023-05-29T15:09:49;29.10;49.80
64951;DHT22;51482;47.014;7.652;2023-05-29T15:12:15;29.50;48.70
64951;DHT22;51482;47.014;7.652;2023-05-29T15:14:40;28.80;48.20
64951;DHT22;51482;47.014;7.652;2023-05-29T15:17:06;28.80;49.10
64951;DHT22;51482;47.014;7.652;2023-05-29T15:19:31;29.00;48.90
64951;DHT22;51482;47.014;7.652;2023-05-29T15:21:57;29.10;47.10
64951;DHT22;51482;47.014;7.652;2023-05-29T15:24:23;28.50;47.80
64951;DHT22;51482;47.014;7.652;2023-05-29T15:26:49;28.70;49.00
64951;DHT22;51482;47.014;7.652;2023-05-29T15:29:15;28.80;48.60
64951;DHT22;51482;47.014;7.652;2023-05-29T15:31:41;28.60;47.00
64951;DHT22;51482;47.014;7.652;2023-05-29T15:34:07;29.00;48.80
64951;DHT22;51482;47.014;7.652;2023-05-29T15:36:32;28.40;48.30
64951;DHT22;51482;47.014;7.652;2023-05-29T15:38:58;28.40;47.80
64951;DHT22;51482;47.014;7.652;2023-05-29T15:41:24;28.10;48.30
64951;DHT22;51482;47.014;7.652;2023-05-29T15:43:54;28.00;48.80
64951;DHT22;51482;47.014;7.652;2023-05-29T15:46:21;27.60;48.50
64951;DHT22;51482;47.014;7.652;2023-05-29T15:48:46;28.40;50.20
64951;DHT22;51482;47.014;7.652;2023-05-29T15:51:12;28.50;49.70
64951;DHT22;51482;47.014;7.652;2023-05-29T15:53:38;28.50;49.50
64951;DHT22;51482;47.014;7.652;2023-05-29T15:56:03;28.40;47.00